Time;durP1;ratioP1;P1;durP2;ratioP2;P2;SDS_P1;SDS_P2;PMS_P1;PMS_P2;Temp;Humidity;BMP_temperature;BMP_pressure;BME280_temperature;BME280_humidity;BME280_pressure;Samples;Min_cycle;Max_cycle;Signal;HPM_P1;HPM_P2
2022/01/30 00:02:07;;;;;;;11.93;3.55;;;;;;;20.63;36.49;102747.56;7350030;19;128267;-52
2022/01/30 00:04:34;;;;;;;12.63;3.97;;;;;;;20.62;36.22;102748.66;7348160;19;128452;-52
2022/01/30 00:07:01;;;;;;;13.35;3.88;;;;;;;20.59;36.43;102748.00;7350001;19;128436;-54
2022/01/30 00:09:27;;;;;;;12.48;3.67;;;;;;;20.57;36.41;102741.78;7346647;19;129048;-57
2022/01/30 00:11:58;;;;;;;12.45;3.90;;;;;;;20.56;36.60;102753.13;7348450;19;128238;-58
2022/01/30 00:14:28;;;;;;;12.27;3.60;;;;;;;20.55;36.31;102751.44;7346882;19;129258;-56
2022/01/30 00:17:19;;;;;;;16.27;4.00;;;;;;;20.52;36.21;102754.63;7345844;19;129774;-55
2022/01/30 00:19:48;;;;;;;11.23;3.75;;;;;;;20.50;36.55;102754.84;7349561;19;128195;-55
2022/01/30 00:22:34;;;;;;;13.93;3.70;;;;;;;20.50;36.46;102754.00;7346805;19;129342;-57
2022/01/30 00:25:11;;;;;;;11.95;3.83;;;;;;;20.49;36.15;102753.16;7348225;19;127723;-52
2022/01/30 00:28:14;;;;;;;9.70;3.75;;;;;;;20.48;36.08;102757.00;7352463;19;127935;-51
2022/01/30 00:30:34;;;;;;;12.32;3.20;;;;;;;20.48;36.38;102767.28;7351914;19;129040;-56
2022/01/30 00:33:02;;;;;;;10.77;3.25;;;;;;;20.45;35.96;102761.06;7355642;19;130357;-54
2022/01/30 00:35:33;;;;;;;10.60;2.92;;;;;;;20.44;36.30;102759.34;7356167;19;127660;-55
2022/01/30 00:38:01;;;;;;;13.05;4.05;;;;;;;20.42;36.18;102752.31;7355000;19;129051;-57
2022/01/30 00:40:33;;;;;;;12.55;3.80;;;;;;;20.40;36.58;102749.72;7355407;19;128353;-54
2022/01/30 00:43:01;;;;;;;10.55;3.45;;;;;;;20.39;36.16;102753.56;7353601;19;129035;-54
2022/01/30 00:45:28;;;;;;;11.88;3.55;;;;;;;20.39;36.61;102763.84;7355315;19;128816;-53
2022/01/30 00:47:55;;;;;;;12.18;3.22;;;;;;;20.36;36.63;102767.03;7355613;19;128411;-57
2022/01/30 00:50:22;;;;;;;12.38;3.72;;;;;;;20.35;36.52;102771.75;7353180;19;128879;-56
2022/01/30 00:52:53;;;;;;;9.30;3.05;;;;;;;20.34;36.25;102777.50;7356678;19;127678;-56
2022/01/30 00:55:22;;;;;;;12.38;3.38;;;;;;;20.33;36.12;102775.81;7352751;19;130168;-55
2022/01/30 00:57:49;;;;;;;10.95;3.00;;;;;;;20.29;36.35;102769.81;7355889;19;128299;-56
2022/01/30 01:00:17;;;;;;;13.68;3.50;;;;;;;20.28;36.28;102779.22;7354226;19;130446;-53
2022/01/30 01:02:45;;;;;;;11.20;3.17;;;;;;;20.26;36.15;102779.44;7354048;19;127955;-53
2022/01/30 01:05:13;;;;;;;10.55;3.45;;;;;;;20.23;36.24;102782.66;7353716;19;127707;-54
2022/01/30 01:07:46;;;;;;;13.43;3.28;;;;;;;20.23;36.09;102790.97;7353429;19;128333;-53
2022/01/30 01:10:29;;;;;;;13.73;3.58;;;;;;;20.22;36.14;102786.47;7352303;19;128269;-54
2022/01/30 01:23:56;;;;;;;12.15;3.45;;;;;;;20.11;36.56;102793.53;7350858;19;129708;-54
2022/01/30 01:26:25;;;;;;;10.85;3.28;;;;;;;20.11;36.28;102795.44;7353538;19;129295;-53
2022/01/30 01:28:53;;;;;;;12.18;3.20;;;;;;;20.10;36.37;102788.19;7349877;19;128255;-54
2022/01/30 01:31:20;;;;;;;10.00;3.08;;;;;;;20.08;36.51;102795.88;7351183;19;128869;-55
2022/01/30 01:36:34;;;;;;;10.48;3.03;;;;;;;20.06;36.38;102798.03;7351292;19;128155;-52
2022/01/30 01:39:01;;;;;;;9.25;3.42;;;;;;;20.05;36.10;102808.25;7351390;19;128299;-55
2022/01/30 01:41:30;;;;;;;11.35;3.58;;;;;;;20.05;36.10;102807.41;7349988;19;128435;-55
2022/01/30 01:43:57;;;;;;;8.77;3.15;;;;;;;20.03;36.27;102815.09;7351788;19;127753;-55
2022/01/30 01:46:31;;;;;;;10.63;3.13;;;;;;;20.03;36.28;102815.09;7353238;19;127695;-55
2022/01/30 01:48:58;;;;;;;12.68;3.55;;;;;;;20.01;36.13;102811.69;7350624;19;129680;-53
2022/01/30 01:51:30;;;;;;;12.13;3.35;;;;;;;19.99;36.07;102814.66;7352475;19;129268;-52
2022/01/30 01:53:58;;;;;;;10.10;3.42;;;;;;;19.99;36.38;102814.66;7351317;19;128062;-52
2022/01/30 01:56:28;;;;;;;11.98;3.40;;;;;;;19.98;36.42;102813.78;7352980;19;128286;-56
2022/01/30 01:58:55;;;;;;;10.18;2.90;;;;;;;19.96;36.25;102815.91;7354666;19;127974;-55
2022/01/30 02:01:24;;;;;;;10.73;3.35;;;;;;;19.96;36.28;102813.13;7351577;19;128096;-53
2022/01/30 02:03:51;;;;;;;9.75;3.03;;;;;;;19.96;36.39;102815.06;7354363;19;127994;-52
2022/01/30 02:06:21;;;;;;;10.38;3.40;;;;;;;19.94;36.26;102820.81;7349419;19;129316;-54
2022/01/30 02:08:54;;;;;;;10.30;2.92;;;;;;;19.94;36.31;102826.34;7351502;19;128252;-54
2022/01/30 02:11:36;;;;;;;12.65;3.53;;;;;;;19.92;36.55;102831.28;7353515;19;128245;-52
2022/01/30 02:27:47;;;;;;;10.25;3.60;;;;;;;19.83;36.29;102824.19;7349679;19;127866;-56
2022/01/30 02:30:19;;;;;;;10.40;3.28;;;;;;;19.83;36.33;102832.50;7350312;19;128204;-55
2022/01/30 02:32:47;;;;;;;11.07;3.38;;;;;;;19.81;36.43;102829.13;7352136;19;128865;-55
2022/01/30 02:35:14;;;;;;;10.30;3.65;;;;;;;19.80;36.58;102821.84;7349761;19;129601;-55
2022/01/30 02:37:41;;;;;;;11.23;3.20;;;;;;;19.79;36.38;102823.75;7351332;19;129079;-55
2022/01/30 02:40:11;;;;;;;10.73;3.45;;;;;;;19.79;36.21;102831.25;7349357;19;128303;-53
2022/01/30 02:42:43;;;;;;;9.95;3.00;;;;;;;19.78;36.48;102826.75;7350846;19;128913;-55
2022/01/30 02:45:12;;;;;;;12.05;3.38;;;;;;;19.77;36.68;102820.31;7353058;19;128385;-55
2022/01/30 02:47:53;;;;;;;7.95;2.92;;;;;;;19.78;36.62;102823.97;7349473;19;127640;-55
2022/01/30 02:50:33;;;;;;;12.00;3.50;;;;;;;19.77;36.41;102819.47;7346697;19;129198;-56
2022/01/30 02:53:03;;;;;;;8.25;2.90;;;;;;;19.76;36.55;102809.44;7352172;19;129475;-54
2022/01/30 02:55:30;;;;;;;10.25;3.28;;;;;;;19.74;36.58;102819.88;7350445;19;129075;-56
2022/01/30 02:57:56;;;;;;;9.45;3.00;;;;;;;19.74;36.30;102817.09;7352956;19;127612;-53
2022/01/30 03:00:23;;;;;;;11.27;3.15;;;;;;;19.74;36.48;102831.00;7349680;19;128240;-50
2022/01/30 03:02:50;;;;;;;12.63;2.80;;;;;;;19.73;36.73;102829.28;7351224;19;129266;-55
2022/01/30 03:05:17;;;;;;;9.70;3.05;;;;;;;19.71;36.73;102823.06;7346994;19;128359;-54
2022/01/30 03:07:44;;;;;;;10.15;2.88;;;;;;;19.69;36.60;102826.06;7349748;19;129357;-53
2022/01/30 03:10:11;;;;;;;9.02;3.08;;;;;;;19.70;36.65;102827.78;7349617;19;128962;-56
2022/01/30 03:12:38;;;;;;;8.40;3.05;;;;;;;19.69;36.79;102826.06;7348693;19;128177;-56
2022/01/30 03:15:06;;;;;;;9.23;3.03;;;;;;;19.69;36.37;102826.91;7351316;19;128248;-56
2022/01/30 03:17:33;;;;;;;6.18;2.42;;;;;;;19.68;36.43;102821.56;7347116;19;132078;-53
2022/01/30 03:20:00;;;;;;;9.30;3.63;;;;;;;19.67;36.72;102817.97;7348403;19;129081;-56
2022/01/30 03:22:27;;;;;;;10.40;2.72;;;;;;;19.67;36.86;102828.19;7347039;19;128486;-54
2022/01/30 03:24:54;;;;;;;8.20;2.65;;;;;;;19.65;36.47;102830.31;7348033;19;127703;-56
2022/01/30 03:27:21;;;;;;;10.40;3.13;;;;;;;19.66;36.60;102834.81;7348371;19;128411;-52
2022/01/30 03:30:02;;;;;;;10.57;2.83;;;;;;;19.65;36.95;102842.28;7345111;19;130488;-59
2022/01/30 03:32:29;;;;;;;10.18;3.42;;;;;;;19.63;36.97;102847.19;7313538;19;131189;-59
2022/01/30 03:34:56;;;;;;;8.68;2.45;;;;;;;19.64;36.92;102842.47;7313451;19;129504;-56
2022/01/30 03:37:23;;;;;;;9.98;2.92;;;;;;;19.62;36.56;102841.84;7313638;19;129278;-55
2022/01/30 03:39:50;;;;;;;8.40;2.80;;;;;;;19.60;36.75;102855.09;7316838;19;129199;-57
2022/01/30 03:42:17;;;;;;;7.90;2.97;;;;;;;19.60;36.78;102855.91;7312545;19;129474;-56
2022/01/30 03:44:43;;;;;;;10.00;3.13;;;;;;;19.59;36.68;102854.22;7313372;19;129992;-56
2022/01/30 03:47:10;;;;;;;8.18;2.97;;;;;;;19.59;36.85;102854.22;7310671;19;130151;-56
2022/01/30 03:49:37;;;;;;;8.57;3.03;;;;;;;19.58;37.06;102857.19;7311202;19;129734;-58
2022/01/30 03:52:04;;;;;;;6.70;2.00;;;;;;;19.56;36.88;102849.09;7329429;19;129438;-55
2022/01/30 03:54:32;;;;;;;8.25;2.88;;;;;;;19.56;36.62;102849.09;7344988;19;129014;-51
2022/01/30 03:56:59;;;;;;;8.88;2.63;;;;;;;19.56;36.96;102848.22;7348635;19;128981;-54
2022/01/30 03:59:26;;;;;;;7.38;2.80;;;;;;;19.55;37.15;102840.94;7345463;19;129269;-51
2022/01/30 04:01:53;;;;;;;9.57;2.75;;;;;;;19.54;36.82;102845.66;7346951;19;129444;-55
2022/01/30 04:04:21;;;;;;;7.15;2.25;;;;;;;19.54;37.21;102856.75;7348665;19;127576;-55
2022/01/30 04:06:49;;;;;;;6.97;2.55;;;;;;;19.53;37.18;102860.59;7346007;19;128184;-51
2022/01/30 04:09:16;;;;;;;9.00;2.97;;;;;;;19.53;36.99;102868.94;7348277;19;129646;-56
2022/01/30 04:11:43;;;;;;;9.05;2.88;;;;;;;19.52;37.04;102867.22;7345404;19;128080;-57
2022/01/30 04:14:10;;;;;;;11.98;2.72;;;;;;;19.52;36.89;102875.53;7347259;19;129580;-54
2022/01/30 04:16:37;;;;;;;9.48;3.05;;;;;;;19.51;37.19;102873.81;7347663;19;128555;-52
2022/01/30 04:19:05;;;;;;;10.48;3.00;;;;;;;19.50;37.12;102880.44;7346546;19;129583;-49
2022/01/30 04:21:33;;;;;;;7.90;2.72;;;;;;;19.50;37.33;102883.22;7347067;19;128745;-56
2022/01/30 04:24:00;;;;;;;7.82;2.63;;;;;;;19.49;37.05;102887.91;7316819;19;129789;-55
2022/01/30 04:26:27;;;;;;;8.63;2.72;;;;;;;19.49;37.13;102887.03;7311463;19;129616;-54
2022/01/30 04:28:55;;;;;;;7.93;2.55;;;;;;;19.47;37.16;102895.59;7308166;19;130812;-56
2022/01/30 04:31:22;;;;;;;6.97;2.67;;;;;;;19.48;37.23;102899.22;7308575;19;129393;-56
2022/01/30 04:33:49;;;;;;;7.68;2.75;;;;;;;19.47;37.12;102894.72;7311023;19;129043;-55
2022/01/30 04:36:21;;;;;;;6.90;2.58;;;;;;;19.47;37.32;102900.25;7310355;19;129535;-55
2022/01/30 04:41:39;;;;;;;5.38;2.20;;;;;;;19.47;37.21;102911.38;7308004;19;129490;-55
2022/01/30 04:52:38;;;;;;;8.63;2.78;;;;;;;19.40;37.53;102918.81;7308595;19;129388;-55
2022/01/30 05:00:30;;;;;;;6.32;2.53;;;;;;;19.37;37.40;102918.16;7309497;19;129479;-54
2022/01/30 05:03:08;;;;;;;7.55;2.42;;;;;;;19.37;37.31;102907.03;7307416;19;130736;-53
2022/01/30 05:08:05;;;;;;;7.70;2.20;;;;;;;19.36;37.53;102916.44;7310264;19;129156;-54
2022/01/30 05:10:32;;;;;;;7.03;2.55;;;;;;;19.37;37.29;102917.31;7307030;19;133932;-55
2022/01/30 05:13:02;;;;;;;7.40;2.35;;;;;;;19.36;37.62;102919.22;7310363;19;129810;-51
2022/01/30 05:15:30;;;;;;;4.25;2.00;;;;;;;19.37;37.33;102920.09;7317810;19;128736;-55
2022/01/30 05:17:57;;;;;;;5.13;2.05;;;;;;;19.34;37.34;102918.53;7314533;19;128880;-53
2022/01/30 05:20:24;;;;;;;8.02;2.67;;;;;;;19.33;37.32;102927.94;7316551;19;129519;-51
2022/01/30 05:22:51;;;;;;;6.75;2.33;;;;;;;19.33;37.63;102922.38;7312893;19;129391;-54
2022/01/30 05:25:18;;;;;;;6.70;2.22;;;;;;;19.33;37.47;102927.94;7315810;19;129579;-50
2022/01/30 05:27:45;;;;;;;6.07;2.42;;;;;;;19.33;37.53;102927.94;7316655;19;129206;-54
2022/01/30 05:30:13;;;;;;;6.45;2.55;;;;;;;19.33;37.46;102921.53;7314023;19;130355;-55
2022/01/30 05:32:40;;;;;;;6.80;2.33;;;;;;;19.31;37.38;102930.06;7316975;19;130437;-55
2022/01/30 05:35:07;;;;;;;6.85;2.40;;;;;;;19.31;37.29;102940.31;7312749;19;130277;-53
2022/01/30 05:37:42;;;;;;;6.80;2.58;;;;;;;19.29;37.21;102943.28;7315189;19;129859;-55
2022/01/30 05:40:09;;;;;;;5.85;2.20;;;;;;;19.30;37.68;102949.69;7315545;19;130003;-55
2022/01/30 05:42:38;;;;;;;5.63;1.95;;;;;;;19.30;37.66;102946.91;7313969;19;129457;-55
2022/01/30 05:47:43;;;;;;;6.18;2.20;;;;;;;19.29;37.38;102943.28;7313062;19;129179;-51
2022/01/30 05:50:11;;;;;;;7.22;2.17;;;;;;;19.27;37.24;102939.84;7315166;19;133398;-52
2022/01/30 05:52:42;;;;;;;7.22;2.17;;;;;;;19.27;37.75;102945.41;7315577;19;130410;-55
2022/01/30 05:55:09;;;;;;;5.85;2.33;;;;;;;19.26;37.73;102949.22;7314310;19;130162;-52
2022/01/30 05:57:36;;;;;;;5.72;2.10;;;;;;;19.25;37.30;102950.28;7315640;19;129138;-53
2022/01/30 06:00:09;;;;;;;10.30;2.88;;;;;;;19.26;37.42;102954.78;7312012;19;130279;-53
2022/01/30 06:02:36;;;;;;;6.68;2.15;;;;;;;19.24;37.57;102962.44;7315188;19;129615;-55
2022/01/30 06:05:03;;;;;;;6.30;2.42;;;;;;;19.24;37.59;102962.44;7311814;19;128845;-53
2022/01/30 06:07:32;;;;;;;7.22;2.85;;;;;;;19.23;37.74;102974.59;7314100;19;130135;-55
2022/01/30 06:09:58;;;;;;;5.85;2.05;;;;;;;19.23;37.28;102977.38;7314895;19;129557;-53
2022/01/30 06:12:25;;;;;;;4.68;2.00;;;;;;;19.21;37.59;102962.84;7313713;19;130308;-53
2022/01/30 06:14:52;;;;;;;6.47;1.83;;;;;;;19.21;37.73;102965.63;7315409;19;128963;-51
2022/01/30 06:17:19;;;;;;;5.93;2.40;;;;;;;19.20;37.70;102969.44;7309614;19;130108;-54
2022/01/30 06:19:46;;;;;;;5.43;2.20;;;;;;;19.20;37.37;102966.66;7312734;19;130299;-49
2022/01/30 06:22:13;;;;;;;6.43;2.10;;;;;;;19.19;37.68;102974.13;7314625;19;130444;-54
2022/01/30 06:24:40;;;;;;;7.05;2.40;;;;;;;19.19;37.31;102978.81;7312420;19;130975;-55
2022/01/30 06:27:06;;;;;;;5.30;1.92;;;;;;;19.18;37.45;102982.66;7314822;19;128821;-55
2022/01/30 06:29:33;;;;;;;6.93;2.00;;;;;;;19.17;37.69;102975.38;7309720;19;129495;-53
2022/01/30 06:32:00;;;;;;;6.03;2.15;;;;;;;19.17;37.80;102986.47;7313238;19;131146;-55
2022/01/30 06:34:30;;;;;;;6.70;2.38;;;;;;;19.16;37.73;102976.44;7313453;19;129331;-53
2022/01/30 06:36:57;;;;;;;7.07;2.38;;;;;;;19.15;37.56;102974.72;7312202;19;128963;-55
2022/01/30 06:39:23;;;;;;;5.03;2.10;;;;;;;19.14;37.66;102973.84;7314043;19;131768;-51
2022/01/30 06:41:50;;;;;;;6.28;2.22;;;;;;;19.15;37.47;102974.72;7311215;19;131339;-53
2022/01/30 06:44:17;;;;;;;7.10;2.35;;;;;;;19.15;37.34;102977.50;7312773;19;129456;-56
2022/01/30 06:46:44;;;;;;;4.88;2.05;;;;;;;19.14;37.41;102984.94;7310795;19;129113;-53
2022/01/30 06:49:11;;;;;;;6.65;1.98;;;;;;;19.12;37.66;102987.09;7310507;19;129808;-53
2022/01/30 06:51:38;;;;;;;4.30;1.80;;;;;;;19.12;37.66;102994.53;7312512;19;131460;-54
2022/01/30 06:54:04;;;;;;;4.60;2.17;;;;;;;19.14;37.43;102989.66;7311074;19;129704;-53
2022/01/30 06:56:31;;;;;;;7.53;2.20;;;;;;;19.19;37.46;102990.78;7314393;19;130414;-53
2022/01/30 06:58:58;;;;;;;5.22;1.77;;;;;;;19.32;37.54;102998.38;7310491;19;130491;-56
2022/01/30 07:01:26;;;;;;;3.65;1.50;;;;;;;19.50;37.12;102985.91;7313119;19;130445;-56
2022/01/30 07:03:53;;;;;;;6.38;2.50;;;;;;;19.71;36.57;102996.13;7310942;19;129873;-55
2022/01/30 07:06:20;;;;;;;4.80;1.85;;;;;;;19.93;36.27;102994.13;7311594;19;133017;-53
2022/01/30 07:08:47;;;;;;;6.57;2.10;;;;;;;20.17;36.29;102991.94;7313650;19;129538;-56
2022/01/30 07:11:15;;;;;;;4.70;1.90;;;;;;;20.41;35.97;102992.44;7310742;19;129786;-57
2022/01/30 07:13:44;;;;;;;3.75;1.90;;;;;;;20.64;35.56;102996.78;7313219;19;128850;-57
2022/01/30 07:16:12;;;;;;;4.40;2.10;;;;;;;20.83;34.94;102998.78;7311227;19;131101;-56
2022/01/30 07:18:39;;;;;;;4.93;2.10;;;;;;;21.05;34.84;103001.38;7311505;19;129596;-56
2022/01/30 07:21:09;;;;;;;4.47;1.73;;;;;;;21.20;34.22;103007.59;7312633;19;129841;-57
2022/01/30 07:23:37;;;;;;;5.93;2.22;;;;;;;21.37;34.27;103007.19;7310782;19;134256;-56
2022/01/30 07:26:04;;;;;;;5.25;2.00;;;;;;;21.47;34.19;103009.56;7310909;19;129610;-62
2022/01/30 07:28:31;;;;;;;5.85;2.22;;;;;;;21.52;34.00;103005.09;7307629;19;130601;-62
2022/01/30 07:30:57;;;;;;;6.85;1.85;;;;;;;21.52;33.86;103007.88;7310637;19;130340;-61
2022/01/30 07:33:24;;;;;;;6.82;2.20;;;;;;;21.51;33.62;103010.84;7311863;19;128942;-63
2022/01/30 07:35:53;;;;;;;4.47;1.92;;;;;;;21.50;33.63;103018.34;7308344;19;129046;-63
2022/01/30 07:38:21;;;;;;;6.55;2.13;;;;;;;21.47;33.61;103020.69;7311289;19;130194;-66
2022/01/30 07:40:49;;;;;;;8.43;2.25;;;;;;;21.40;33.82;103017.03;7310288;19;130672;-63
2022/01/30 07:43:16;;;;;;;10.70;2.80;;;;;;;21.38;33.52;103017.25;7312210;19;128594;-63
2022/01/30 07:45:43;;;;;;;8.63;2.40;;;;;;;21.38;33.68;103022.81;7310189;19;129129;-62
2022/01/30 07:48:10;;;;;;;9.10;2.40;;;;;;;21.30;33.79;103023.03;7311168;19;129561;-63
2022/01/30 07:50:37;;;;;;;5.22;2.10;;;;;;;21.22;33.93;103019.38;7309117;19;130451;-65
2022/01/30 07:53:03;;;;;;;6.07;2.10;;;;;;;21.16;33.99;103017.47;7309650;19;129159;-65
2022/01/30 07:55:30;;;;;;;6.75;2.10;;;;;;;21.09;34.07;103019.38;7312287;19;130087;-63
2022/01/30 07:57:57;;;;;;;7.82;2.47;;;;;;;21.05;34.19;103018.06;7308939;19;131173;-64
2022/01/30 08:00:24;;;;;;;7.15;1.98;;;;;;;21.01;34.07;103016.81;7307289;19;133857;-65
2022/01/30 08:02:51;;;;;;;8.82;2.47;;;;;;;21.10;34.31;103004.41;7311747;19;128921;-64
2022/01/30 08:05:18;;;;;;;8.27;2.60;;;;;;;21.32;34.07;103006.97;7306263;19;130100;-64
2022/01/30 08:07:44;;;;;;;6.65;2.53;;;;;;;21.56;33.36;103001.84;7312243;19;130246;-64
2022/01/30 08:10:11;;;;;;;6.47;2.13;;;;;;;21.80;33.02;102992.81;7307362;19;129182;-64
2022/01/30 08:12:38;;;;;;;8.30;2.60;;;;;;;22.03;32.87;103002.59;7307547;19;129208;-65
2022/01/30 08:15:06;;;;;;;6.88;2.20;;;;;;;22.12;32.71;103006.00;7309211;19;129202;-65
2022/01/30 08:17:35;;;;;;;8.55;2.53;;;;;;;22.09;32.76;103012.88;7311589;19;130668;-63
2022/01/30 08:20:03;;;;;;;5.57;2.10;;;;;;;22.22;32.68;103006.41;7309241;19;131326;-63
2022/01/30 08:22:31;;;;;;;8.80;2.40;;;;;;;22.43;32.24;103007.22;7307039;19;129017;-63
2022/01/30 08:24:58;;;;;;;6.95;2.08;;;;;;;22.58;32.44;103009.69;7309952;19;129768;-38
2022/01/30 08:27:24;;;;;;;9.27;2.50;;;;;;;22.71;32.17;103019.91;7308766;19;130060;-38
2022/01/30 08:29:51;;;;;;;6.75;2.45;;;;;;;22.83;32.02;103014.50;7310674;19;129247;-38
2022/01/30 08:32:18;;;;;;;5.93;2.55;;;;;;;22.84;31.76;103013.41;7310491;19;129613;-38
2022/01/30 08:34:45;;;;;;;6.70;2.25;;;;;;;23.20;31.52;103028.66;7308940;19;128979;-38
2022/01/30 08:37:11;;;;;;;7.53;2.40;;;;;;;23.50;31.10;103022.41;7312912;19;130741;-38
2022/01/30 08:39:38;;;;;;;5.43;1.80;;;;;;;23.90;30.51;103022.00;7310182;19;129488;-38
2022/01/30 08:42:05;;;;;;;11.00;2.70;;;;;;;24.15;30.23;103023.88;7310513;19;128821;-38
2022/01/30 08:44:32;;;;;;;6.90;2.40;;;;;;;24.30;29.83;103033.84;7312038;19;129538;-38
2022/01/30 08:46:59;;;;;;;5.25;2.08;;;;;;;24.14;30.32;103044.53;7311019;19;130549;-38
2022/01/30 08:49:26;;;;;;;5.25;2.08;;;;;;;24.01;30.82;103039.09;7318024;19;130816;-38
2022/01/30 08:51:53;;;;;;;5.50;2.50;;;;;;;23.99;30.58;103041.28;7317378;19;129557;-38
2022/01/30 08:54:20;;;;;;;6.72;2.50;;;;;;;24.18;30.65;103040.19;7317662;19;129091;-38
2022/01/30 08:56:47;;;;;;;5.40;2.10;;;;;;;24.80;29.83;103030.81;7315808;19;129529;-39
2022/01/30 08:59:13;;;;;;;5.82;2.17;;;;;;;25.05;29.25;103031.78;7316588;19;130355;-38
2022/01/30 09:01:40;;;;;;;8.52;1.92;;;;;;;24.88;29.37;103040.81;7316809;19;129381;-38
2022/01/30 09:04:08;;;;;;;8.38;2.30;;;;;;;24.68;29.70;103046.69;7318776;19;129148;-38
2022/01/30 09:06:38;;;;;;;6.93;2.08;;;;;;;24.53;30.01;103050.75;7318261;19;132451;-38
2022/01/30 09:09:05;;;;;;;7.43;2.10;;;;;;;24.41;30.08;103039.53;7315860;19;129946;-39
2022/01/30 09:11:34;;;;;;;8.05;2.53;;;;;;;24.31;30.01;103044.78;7316828;19;129037;-38
2022/01/30 09:14:01;;;;;;;8.57;2.17;;;;;;;24.20;30.35;103039.94;7314877;19;129979;-38
2022/01/30 09:16:27;;;;;;;8.45;2.50;;;;;;;24.10;30.62;103040.50;7316798;19;132011;-38
2022/01/30 09:18:56;;;;;;;8.30;2.35;;;;;;;23.99;30.57;103056.09;7316648;19;129449;-38
2022/01/30 09:21:23;;;;;;;5.75;2.53;;;;;;;23.89;30.61;103070.59;7314587;19;128829;-38
2022/01/30 09:23:50;;;;;;;7.15;2.10;;;;;;;23.79;31.13;103061.91;7317228;19;128999;-39
2022/01/30 09:26:17;;;;;;;6.22;2.00;;;;;;;23.67;30.86;103067.41;7316488;19;130360;-39
2022/01/30 09:28:43;;;;;;;6.95;2.33;;;;;;;23.54;31.19;103062.75;7316686;19;130473;-38
2022/01/30 09:31:10;;;;;;;5.65;2.00;;;;;;;23.43;31.39;103067.16;7317901;19;128894;-38
2022/01/30 09:33:38;;;;;;;5.43;2.13;;;;;;;23.31;31.48;103080.97;7315587;19;129669;-38
2022/01/30 09:36:06;;;;;;;7.30;2.42;;;;;;;23.20;31.26;103081.72;7313332;19;130083;-37
2022/01/30 09:38:33;;;;;;;7.43;2.40;;;;;;;23.10;31.77;103084.97;7314749;19;129521;-38
2022/01/30 09:41:04;;;;;;;8.73;2.40;;;;;;;22.99;31.76;103081.00;7314998;19;129460;-38
2022/01/30 09:43:33;;;;;;;6.25;2.40;;;;;;;22.89;32.10;103086.19;7318728;19;129673;-38
2022/01/30 09:46:01;;;;;;;4.45;1.95;;;;;;;22.79;31.90;103089.44;7314671;19;130064;-38
2022/01/30 09:48:34;;;;;;;7.20;2.45;;;;;;;22.70;32.01;103076.81;7316998;19;130361;-39
2022/01/30 09:51:03;;;;;;;7.72;2.60;;;;;;;22.62;32.28;103094.66;7314832;19;129485;-38
2022/01/30 09:53:31;;;;;;;5.80;2.20;;;;;;;22.53;32.28;103098.75;7315216;19;128880;-38
2022/01/30 09:55:58;;;;;;;7.85;2.30;;;;;;;22.44;32.43;103092.59;7318344;19;130790;-38
2022/01/30 09:58:25;;;;;;;8.15;2.45;;;;;;;22.36;32.54;103096.47;7313551;19;129123;-38
2022/01/30 10:00:54;;;;;;;7.40;2.63;;;;;;;22.29;32.70;103095.63;7317942;19;128946;-38
2022/01/30 10:03:22;;;;;;;6.72;2.08;;;;;;;22.22;32.94;103103.16;7315401;19;129494;-38
2022/01/30 10:06:22;;;;;;;5.28;2.33;;;;;;;22.13;32.96;103096.91;7317215;19;129500;-37
2022/01/30 10:08:54;;;;;;;5.32;2.25;;;;;;;22.05;33.15;103106.38;7315878;19;130872;-38
2022/01/30 10:14:10;;;;;;;6.35;2.30;;;;;;;21.95;33.34;103106.84;7316176;19;128992;-38
2022/01/30 10:16:42;;;;;;;6.75;2.28;;;;;;;21.94;33.46;103115.38;7316651;19;132255;-38
2022/01/30 10:19:19;;;;;;;5.65;2.05;;;;;;;21.95;32.99;103114.31;7315137;19;130502;-38
2022/01/30 10:21:48;;;;;;;7.10;2.47;;;;;;;21.94;33.20;103110.69;7317283;19;129571;-38
2022/01/30 10:24:23;;;;;;;9.18;2.35;;;;;;;21.95;33.16;103112.41;7313530;19;129692;-38
2022/01/30 10:26:53;;;;;;;6.90;2.30;;;;;;;21.94;32.92;103120.97;7315099;19;129656;-38
2022/01/30 10:29:25;;;;;;;5.20;2.28;;;;;;;21.93;32.91;103122.03;7316634;19;129126;-38
2022/01/30 10:32:09;;;;;;;9.15;2.35;;;;;;;21.94;32.88;103109.81;7313864;19;129155;-38
2022/01/30 10:34:38;;;;;;;6.68;2.50;;;;;;;21.95;32.49;103111.53;7316364;19;128899;-38
2022/01/30 10:37:15;;;;;;;7.22;2.50;;;;;;;21.93;32.45;103103.41;7316589;19;129641;-38
2022/01/30 10:40:07;;;;;;;7.88;2.33;;;;;;;21.93;32.67;103113.66;7315305;19;129568;-37
2022/01/30 10:42:45;;;;;;;8.60;2.47;;;;;;;21.93;32.71;103116.47;7316665;19;128800;-38
2022/01/30 10:45:19;;;;;;;9.07;2.63;;;;;;;21.92;32.47;103107.25;7313495;19;129281;-38
2022/01/30 10:47:47;;;;;;;8.52;2.55;;;;;;;21.89;31.99;103109.63;7314765;19;130536;-37
2022/01/30 10:50:18;;;;;;;9.05;2.42;;;;;;;21.88;32.07;103110.69;7316019;19;130521;-38
2022/01/30 10:53:02;;;;;;;8.73;2.53;;;;;;;21.86;31.67;103113.69;7314144;19;129080;-38
2022/01/30 10:55:36;;;;;;;6.63;2.10;;;;;;;21.85;31.45;103108.31;7314713;19;128889;-38
2022/01/30 10:58:04;;;;;;;8.50;2.85;;;;;;;21.81;31.72;103103.19;7315280;19;130564;-38
2022/01/30 11:00:56;;;;;;;10.48;2.70;;;;;;;21.80;31.30;103108.97;7314152;19;129640;-38
2022/01/30 11:03:50;;;;;;;8.10;2.60;;;;;;;21.78;31.34;103102.75;7315934;19;128927;-37
2022/01/30 11:06:17;;;;;;;9.23;3.00;;;;;;;21.75;31.24;103101.28;7313349;19;129149;-38
2022/01/30 11:08:47;;;;;;;8.80;2.20;;;;;;;21.75;31.28;103101.28;7314089;19;130558;-38
2022/01/30 11:11:36;;;;;;;11.00;2.47;;;;;;;21.76;31.09;103096.53;7313653;19;130380;-38
2022/01/30 11:19:22;;;;;;;8.30;3.13;;;;;;;21.71;30.43;103094.41;7315578;19;129347;-37
2022/01/30 11:21:51;;;;;;;7.45;2.65;;;;;;;21.73;30.22;103091.38;7313464;19;130595;-38
2022/01/30 11:24:19;;;;;;;14.15;3.17;;;;;;;21.71;30.09;103082.41;7312447;19;129019;-37
2022/01/30 11:26:47;;;;;;;9.40;2.70;;;;;;;21.71;30.29;103083.25;7312181;19;129027;-38
2022/01/30 11:29:16;;;;;;;8.23;3.08;;;;;;;21.71;30.04;103083.25;7314256;19;132316;-38
2022/01/30 11:31:43;;;;;;;11.23;3.17;;;;;;;21.72;30.00;103084.13;7311520;19;129735;-38
2022/01/30 11:34:10;;;;;;;8.73;2.60;;;;;;;21.69;29.89;103063.13;7310834;19;129256;-38
2022/01/30 11:36:43;;;;;;;8.73;2.42;;;;;;;21.70;30.27;103064.81;7313957;19;128929;-38
2022/01/30 11:39:18;;;;;;;11.05;2.63;;;;;;;21.72;29.96;103054.34;7311432;19;129570;-38
2022/01/30 11:42:10;;;;;;;10.77;2.58;;;;;;;21.71;29.81;103060.13;7313427;19;129584;-38
2022/01/30 11:44:39;;;;;;;8.07;2.53;;;;;;;21.70;29.93;103064.81;7312347;19;129381;-38
2022/01/30 11:47:07;;;;;;;8.60;2.72;;;;;;;21.69;30.24;103057.53;7309742;19;129074;-37
2022/01/30 11:49:41;;;;;;;9.00;2.97;;;;;;;21.68;29.83;103061.41;7313620;19;129862;-38
2022/01/30 11:52:10;;;;;;;12.60;3.20;;;;;;;21.67;30.10;103060.56;7310458;19;129251;-38
2022/01/30 11:54:49;;;;;;;8.43;2.67;;;;;;;21.66;30.15;103064.41;7311924;19;130326;-38
2022/01/30 11:57:22;;;;;;;9.63;2.97;;;;;;;21.67;29.89;103059.69;7313776;19;129104;-38
2022/01/30 11:59:54;;;;;;;10.57;2.85;;;;;;;21.67;30.16;103065.25;7310005;19;129804;-38
2022/01/30 12:02:24;;;;;;;9.00;2.58;;;;;;;21.66;29.92;103061.63;7314036;19;129503;-38
2022/01/30 12:05:03;;;;;;;9.88;2.78;;;;;;;21.66;29.69;103053.25;7312697;19;130160;-38
2022/01/30 12:07:33;;;;;;;10.38;2.58;;;;;;;21.65;30.02;103053.50;7311752;19;129179;-38
2022/01/30 12:10:15;;;;;;;10.90;3.25;;;;;;;21.65;30.24;103050.72;7313501;19;129577;-38
2022/01/30 12:13:01;;;;;;;8.73;2.95;;;;;;;21.65;30.32;103042.34;7311618;19;130430;-38
2022/01/30 12:15:39;;;;;;;8.20;2.60;;;;;;;21.64;30.26;103052.63;7312770;19;128807;-38
2022/01/30 12:18:14;;;;;;;7.60;2.60;;;;;;;21.63;30.48;103036.97;7312295;19;129148;-38
2022/01/30 12:20:59;;;;;;;8.63;3.10;;;;;;;21.64;30.37;103046.22;7309687;19;130073;-38
2022/01/30 12:23:30;;;;;;;7.60;2.50;;;;;;;21.64;30.14;103032.28;7317069;19;130386;-37